Time;durP1;ratioP1;P1;durP2;ratioP2;P2;SDS_P1;SDS_P2;PMS_P1;PMS_P2;Temp;Humidity;BMP_temperature;BMP_pressure;BME280_temperature;BME280_humidity;BME280_pressure;Samples;Min_cycle;Max_cycle;Signal;HPM_P1;HPM_P2
2020/12/20 00:02:31;;;;;;;9.68;5.15;;;3.70;88.50;;;;;;4880534;29;20049;-87
2020/12/20 00:05:14;;;;;;;8.80;3.75;;;3.70;88.60;;;;;;4881983;29;20057;-87
2020/12/20 00:07:50;;;;;;;7.57;3.53;;;3.70;88.60;;;;;;4876532;29;20049;-88
2020/12/20 00:10:24;;;;;;;8.52;4.15;;;3.60;88.80;;;;;;4890764;29;20089;-90
2020/12/20 00:12:58;;;;;;;10.73;4.50;;;3.70;88.90;;;;;;4883800;29;20068;-88
2020/12/20 00:15:28;;;;;;;10.70;5.03;;;3.70;88.80;;;;;;4900132;29;20073;-88
2020/12/20 00:18:09;;;;;;;12.73;5.22;;;3.70;88.70;;;;;;4883562;29;20055;-89
2020/12/20 00:20:41;;;;;;;11.32;4.38;;;3.70;88.50;;;;;;4899932;29;20045;-87
2020/12/20 00:23:12;;;;;;;7.80;4.10;;;3.80;88.30;;;;;;4885596;29;20049;-86
2020/12/20 00:25:47;;;;;;;11.35;4.68;;;3.80;88.30;;;;;;4897468;29;20065;-90
2020/12/20 00:28:19;;;;;;;10.60;4.55;;;3.80;88.20;;;;;;4884242;29;20060;-89
2020/12/20 00:30:55;;;;;;;8.32;3.75;;;3.80;87.90;;;;;;4899343;29;20057;-87
2020/12/20 00:33:32;;;;;;;8.57;4.70;;;3.90;88.00;;;;;;4899998;29;20049;-89
2020/12/20 00:36:08;;;;;;;8.32;4.68;;;3.90;88.00;;;;;;4884955;29;20053;-89
2020/12/20 00:38:42;;;;;;;12.63;4.70;;;3.90;87.90;;;;;;4915888;29;20080;-89
2020/12/20 00:41:10;;;;;;;9.07;4.50;;;3.90;87.50;;;;;;4901073;29;20231;-88
2020/12/20 00:43:40;;;;;;;9.02;3.90;;;3.90;87.80;;;;;;4900339;29;20044;-88
2020/12/20 00:46:17;;;;;;;10.18;4.15;;;3.90;87.80;;;;;;4878661;29;20078;-88
2020/12/20 00:48:45;;;;;;;11.65;4.13;;;3.90;87.70;;;;;;4899096;29;20072;-87
2020/12/20 00:51:17;;;;;;;10.35;5.60;;;3.90;87.50;;;;;;4899585;29;20060;-88
2020/12/20 00:53:45;;;;;;;8.65;4.90;;;3.80;87.60;;;;;;4900619;29;20063;-89
2020/12/20 00:56:17;;;;;;;11.23;5.63;;;3.90;87.50;;;;;;4884390;29;20069;-88
2020/12/20 00:58:57;;;;;;;14.13;4.68;;;3.80;87.60;;;;;;4900509;29;20064;-88
2020/12/20 01:01:27;;;;;;;8.70;4.75;;;3.80;87.70;;;;;;4897689;29;20241;-89
2020/12/20 01:04:03;;;;;;;9.43;4.47;;;3.80;87.50;;;;;;4906211;29;20126;-89
2020/12/20 01:06:37;;;;;;;11.10;4.95;;;3.70;87.60;;;;;;4907120;29;20045;-88
2020/12/20 01:09:36;;;;;;;6.93;3.78;;;3.70;87.60;;;;;;4886774;29;20058;-88
2020/12/20 01:12:25;;;;;;;13.30;5.40;;;3.70;87.80;;;;;;4898635;29;20053;-91
2020/12/20 01:15:20;;;;;;;9.00;4.47;;;3.70;87.90;;;;;;4902005;29;20061;-88
2020/12/20 01:18:07;;;;;;;9.20;4.90;;;3.70;87.70;;;;;;4889182;29;20032;-89
2020/12/20 01:20:35;;;;;;;9.68;4.50;;;3.70;87.60;;;;;;4902382;29;20306;-87
2020/12/20 01:23:15;;;;;;;10.23;5.25;;;3.70;87.60;;;;;;4886766;29;20125;-88
2020/12/20 01:25:44;;;;;;;8.55;4.45;;;3.80;87.60;;;;;;4896150;29;20057;-88
2020/12/20 01:28:25;;;;;;;10.23;4.43;;;3.70;87.60;;;;;;4911276;29;20044;-88
2020/12/20 01:31:00;;;;;;;8.80;4.30;;;3.80;87.60;;;;;;4909711;29;20045;-88
2020/12/20 01:33:47;;;;;;;9.55;4.35;;;3.80;87.40;;;;;;4896989;29;20052;-89
2020/12/20 01:36:20;;;;;;;8.35;4.82;;;3.80;87.30;;;;;;4903598;29;20053;-88
2020/12/20 01:39:04;;;;;;;12.82;6.53;;;3.70;87.30;;;;;;4902811;29;20061;-87
2020/12/20 01:41:50;;;;;;;11.68;5.10;;;3.70;87.30;;;;;;4899011;29;20059;-88
2020/12/20 01:44:39;;;;;;;10.75;5.70;;;3.70;87.30;;;;;;4883369;29;20060;-88
2020/12/20 01:47:14;;;;;;;9.20;4.55;;;3.70;87.30;;;;;;4902780;29;20053;-89
2020/12/20 01:50:06;;;;;;;12.10;6.38;;;3.70;87.30;;;;;;4896705;29;20049;-89
2020/12/20 01:52:41;;;;;;;8.07;5.45;;;3.70;86.90;;;;;;4895225;29;20064;-88
2020/12/20 01:55:18;;;;;;;12.05;5.82;;;3.70;87.10;;;;;;4896313;29;20116;-90
2020/12/20 01:58:31;;;;;;;7.65;4.63;;;3.70;87.00;;;;;;4915095;29;20039;-88
2020/12/20 02:01:12;;;;;;;11.82;4.85;;;3.70;86.90;;;;;;4886552;29;20045;-90
2020/12/20 02:04:02;;;;;;;9.50;4.93;;;3.70;86.70;;;;;;5066823;23;20036;-90
2020/12/20 02:06:45;;;;;;;8.43;4.28;;;3.70;86.80;;;;;;4904269;29;20049;-90
2020/12/20 02:09:18;;;;;;;11.55;5.30;;;3.70;86.70;;;;;;4919909;29;20055;-89
2020/12/20 02:12:05;;;;;;;9.70;4.78;;;3.70;86.80;;;;;;4920973;29;20073;-88
2020/12/20 02:17:38;;;;;;;9.48;3.72;;;3.80;87.00;;;;;;4905583;29;20024;-88
2020/12/20 02:20:26;;;;;;;10.13;5.18;;;3.80;86.90;;;;;;4923189;29;20051;-88
2020/12/20 02:23:33;;;;;;;10.18;4.18;;;3.80;87.00;;;;;;4939459;29;20048;-90
2020/12/20 02:26:08;;;;;;;10.55;5.13;;;3.90;86.70;;;;;;4906136;29;20374;-88
2020/12/20 02:28:59;;;;;;;9.93;5.55;;;3.90;86.30;;;;;;4910162;29;20076;-87
2020/12/20 02:31:43;;;;;;;12.10;4.97;;;3.90;86.30;;;;;;4919558;29;20053;-89
2020/12/20 02:34:30;;;;;;;7.60;4.20;;;3.80;86.40;;;;;;4940113;29;20064;-89
2020/12/20 02:37:00;;;;;;;14.25;5.75;;;3.80;86.60;;;;;;4911861;29;20153;-89
2020/12/20 02:39:41;;;;;;;9.43;4.65;;;3.80;86.60;;;;;;4918808;29;20088;-88
2020/12/20 02:42:14;;;;;;;11.40;5.40;;;3.80;86.70;;;;;;4921265;29;20048;-88
2020/12/20 02:44:50;;;;;;;10.00;4.90;;;3.80;86.80;;;;;;4921513;29;20120;-89
2020/12/20 02:47:25;;;;;;;10.05;4.65;;;3.80;87.60;;;;;;4905321;29;20059;-89
2020/12/20 02:49:57;;;;;;;8.32;4.38;;;3.80;87.40;;;;;;4921334;29;20064;-88
2020/12/20 02:52:42;;;;;;;11.52;5.05;;;3.90;87.30;;;;;;4904557;29;20076;-89
2020/12/20 02:55:31;;;;;;;10.77;5.80;;;4.00;87.10;;;;;;4903527;29;20068;-88
2020/12/20 02:58:13;;;;;;;9.43;4.10;;;4.00;87.10;;;;;;4919557;29;20059;-89
2020/12/20 03:00:50;;;;;;;7.72;3.70;;;4.00;86.90;;;;;;4886597;29;20089;-90
2020/12/20 03:03:35;;;;;;;9.85;4.60;;;4.00;86.20;;;;;;4914357;29;20123;-89
2020/12/20 03:06:07;;;;;;;9.00;4.05;;;4.00;86.20;;;;;;4924233;29;20343;-89
2020/12/20 03:08:53;;;;;;;7.65;4.13;;;4.00;86.60;;;;;;4927109;29;20064;-89
2020/12/20 03:11:39;;;;;;;9.35;4.95;;;4.10;86.90;;;;;;4905007;29;20057;-89
2020/12/20 03:14:22;;;;;;;7.75;3.55;;;4.20;86.50;;;;;;4920946;29;20074;-88
2020/12/20 03:20:20;;;;;;;10.52;4.82;;;4.20;86.60;;;;;;4933079;29;20106;-88
2020/12/20 03:22:50;;;;;;;7.70;4.10;;;4.10;86.00;;;;;;4917301;29;20053;-88
2020/12/20 03:25:40;;;;;;;12.13;5.75;;;3.90;86.20;;;;;;4932815;29;20056;-87
2020/12/20 03:28:47;;;;;;;10.93;5.20;;;3.80;86.60;;;;;;4920043;29;20054;-88
2020/12/20 03:31:47;;;;;;;9.35;4.55;;;3.70;86.80;;;;;;4919348;29;20052;-88
2020/12/20 03:34:40;;;;;;;9.30;4.60;;;3.70;86.90;;;;;;4931007;29;20076;-89
2020/12/20 03:41:15;;;;;;;10.20;5.03;;;3.70;87.20;;;;;;4899764;29;20032;-90
2020/12/20 03:44:04;;;;;;;8.40;4.03;;;3.70;87.10;;;;;;4919858;29;20056;-89
2020/12/20 03:46:45;;;;;;;11.70;5.60;;;3.70;87.50;;;;;;4921266;29;20060;-89
2020/12/20 03:49:40;;;;;;;10.57;5.38;;;3.70;87.00;;;;;;4920287;29;20059;-89
2020/12/20 03:52:12;;;;;;;11.27;5.18;;;3.70;87.00;;;;;;4912536;29;20072;-89
2020/12/20 03:55:32;;;;;;;10.65;4.53;;;3.80;86.60;;;;;;4922057;29;20040;-91
2020/12/20 03:58:24;;;;;;;9.55;5.55;;;3.70;86.90;;;;;;4914568;29;20048;-89
2020/12/20 04:01:25;;;;;;;;;;;;;;;;;;;;;
2020/12/20 04:04:32;;;;;;;11.27;4.72;;;3.80;86.50;;;;;;4904143;29;20044;-89
2020/12/20 04:07:13;;;;;;;13.20;5.63;;;3.80;86.70;;;;;;4910270;29;20045;-90
2020/12/20 04:10:04;;;;;;;9.23;4.82;;;3.80;86.30;;;;;;4922230;29;20036;-88
2020/12/20 04:12:39;;;;;;;11.85;5.13;;;3.80;86.40;;;;;;4920261;29;20075;-87
2020/12/20 04:15:14;;;;;;;11.00;4.78;;;3.70;86.60;;;;;;4903952;29;20037;-89
2020/12/20 04:18:03;;;;;;;10.80;4.78;;;3.80;86.50;;;;;;4904083;29;20045;-88
2020/12/20 04:21:12;;;;;;;10.32;4.65;;;3.80;86.40;;;;;;4921714;29;20123;-91
2020/12/20 04:24:26;;;;;;;7.75;3.95;;;3.90;86.30;;;;;;4922695;29;20107;-89
2020/12/20 04:27:03;;;;;;;7.85;4.05;;;3.90;85.70;;;;;;4909252;29;20073;-89
2020/12/20 04:30:26;;;;;;;;;;;3.80;86.00;;;;;;4920541;29;20057;-88
2020/12/20 04:33:10;;;;;;;11.00;4.93;;;3.80;86.00;;;;;;4919641;29;19986;-89
2020/12/20 04:35:58;;;;;;;9.45;5.15;;;3.80;86.10;;;;;;4918876;29;20108;-89
2020/12/20 04:38:50;;;;;;;9.32;3.88;;;3.80;86.10;;;;;;4934603;29;20036;-90
2020/12/20 04:41:37;;;;;;;9.05;4.95;;;3.90;85.90;;;;;;4909647;29;20040;-88
2020/12/20 04:44:32;;;;;;;10.30;4.53;;;3.80;85.80;;;;;;4905443;29;20116;-88
2020/12/20 04:47:20;;;;;;;9.95;5.43;;;3.80;85.90;;;;;;4934270;29;20061;-89
2020/12/20 04:50:00;;;;;;;7.97;4.20;;;3.90;85.90;;;;;;4930065;29;20076;-87
2020/12/20 04:53:00;;;;;;;10.82;4.85;;;3.90;85.60;;;;;;4913609;29;20128;-91
2020/12/20 04:56:20;;;;;;;9.23;4.22;;;3.80;85.80;;;;;;4928959;29;20044;-87
2020/12/20 04:59:07;;;;;;;;;;;3.80;85.80;;;;;;4901357;29;20454;-90
2020/12/20 05:01:51;;;;;;;10.10;4.32;;;3.80;85.90;;;;;;4907802;29;19943;-88
2020/12/20 05:04:51;;;;;;;10.10;4.43;;;3.80;85.70;;;;;;4924744;29;20296;-90
2020/12/20 05:08:07;;;;;;;9.65;4.63;;;3.90;85.60;;;;;;4924981;29;20049;-87
2020/12/20 05:11:41;;;;;;;10.07;4.88;;;3.90;85.60;;;;;;4906051;29;20037;-88
2020/12/20 05:14:36;;;;;;;8.77;4.78;;;3.80;85.50;;;;;;4939139;29;20054;-89
2020/12/20 05:17:29;;;;;;;9.53;4.83;;;3.80;85.80;;;;;;4925042;29;20052;-88
2020/12/20 05:23:30;;;;;;;10.77;4.63;;;3.80;85.70;;;;;;4903948;29;20059;-89
2020/12/20 05:26:29;;;;;;;10.52;5.72;;;3.80;85.80;;;;;;4902667;29;20053;-89
2020/12/20 05:33:03;;;;;;;13.15;4.95;;;3.90;85.60;;;;;;4896113;29;20028;-88
2020/12/20 05:35:33;;;;;;;7.63;4.05;;;4.00;85.40;;;;;;4925448;29;20040;-89
2020/12/20 05:38:48;;;;;;;10.32;4.65;;;3.90;85.20;;;;;;4924622;29;20068;-89
2020/12/20 05:41:34;;;;;;;13.88;4.30;;;3.90;85.40;;;;;;4907002;29;20052;-89
2020/12/20 05:44:44;;;;;;;10.40;4.70;;;3.90;85.80;;;;;;4918228;29;20049;-87
2020/12/20 05:47:49;;;;;;;9.20;4.88;;;3.90;85.70;;;;;;4914740;29;20226;-87
2020/12/20 05:51:23;;;;;;;8.02;4.03;;;3.90;85.50;;;;;;4909799;29;20045;-90
2020/12/20 05:54:13;;;;;;;7.30;4.15;;;4.00;85.80;;;;;;4919056;29;20053;-87
2020/12/20 05:57:14;;;;;;;9.95;4.10;;;4.00;85.50;;;;;;4914279;29;20076;-88
2020/12/20 05:59:55;;;;;;;8.35;4.22;;;3.90;85.30;;;;;;4921577;29;20049;-88
2020/12/20 06:02:51;;;;;;;9.05;4.50;;;3.90;85.60;;;;;;4905799;29;20044;-89
2020/12/20 06:05:21;;;;;;;11.13;3.97;;;3.90;85.90;;;;;;4904779;29;20060;-89
2020/12/20 06:08:27;;;;;;;8.00;4.30;;;3.90;85.60;;;;;;4912081;29;20029;-89
2020/12/20 06:11:17;;;;;;;9.30;4.53;;;3.80;85.80;;;;;;4914728;29;20049;-88
2020/12/20 06:13:50;;;;;;;7.75;3.60;;;3.80;85.90;;;;;;4905257;29;20036;-88
2020/12/20 06:16:48;;;;;;;10.27;4.90;;;3.80;85.70;;;;;;4921368;29;20044;-89
2020/12/20 06:19:28;;;;;;;13.10;5.03;;;3.90;86.00;;;;;;4895470;29;20045;-89
2020/12/20 06:22:19;;;;;;;8.00;4.28;;;3.90;86.20;;;;;;4920587;29;20284;-88
2020/12/20 06:24:51;;;;;;;11.95;5.35;;;3.80;85.50;;;;;;4920248;29;20138;-88
2020/12/20 06:27:21;;;;;;;11.80;5.45;;;3.80;86.10;;;;;;4907282;29;20048;-88
2020/12/20 06:29:55;;;;;;;8.07;3.75;;;3.90;86.10;;;;;;4904133;29;20045;-88
2020/12/20 06:32:34;;;;;;;7.65;3.42;;;3.80;86.90;;;;;;4920368;29;20064;-87
2020/12/20 06:35:21;;;;;;;8.25;3.83;;;3.90;87.30;;;;;;4902089;29;20052;-88
2020/12/20 06:38:00;;;;;;;10.18;4.50;;;3.90;87.20;;;;;;4915920;29;20084;-89
2020/12/20 06:40:44;;;;;;;10.52;4.82;;;3.80;87.20;;;;;;4918408;29;20055;-88
2020/12/20 06:43:42;;;;;;;12.25;5.55;;;3.80;87.40;;;;;;4909651;29;20072;-89
2020/12/20 06:46:43;;;;;;;8.70;4.63;;;3.70;87.60;;;;;;4908063;29;20045;-88
2020/12/20 06:49:45;;;;;;;8.80;4.55;;;3.70;87.70;;;;;;4920422;29;20067;-87
2020/12/20 06:52:27;;;;;;;6.35;3.10;;;3.70;88.10;;;;;;4919469;29;20052;-88
2020/12/20 06:55:09;;;;;;;9.60;5.10;;;3.70;87.60;;;;;;4919653;29;20048;-88
2020/12/20 06:58:24;;;;;;;8.48;3.72;;;3.70;88.20;;;;;;4904119;29;20068;-87
2020/12/20 07:00:53;;;;;;;10.57;4.93;;;3.70;87.90;;;;;;4904223;29;20075;-90
2020/12/20 07:03:44;;;;;;;7.35;3.92;;;3.60;88.10;;;;;;4902282;29;20116;-90
2020/12/20 07:06:16;;;;;;;12.23;4.72;;;3.70;88.30;;;;;;4896625;29;20056;-88
2020/12/20 07:09:00;;;;;;;;;;;3.60;88.30;;;;;;4912808;29;20130;-88
2020/12/20 07:11:30;;;;;;;8.93;3.78;;;3.60;88.50;;;;;;4911404;29;19915;-88
2020/12/20 07:14:15;;;;;;;9.00;4.18;;;3.60;89.00;;;;;;4924950;29;20051;-89
2020/12/20 07:16:46;;;;;;;8.43;4.20;;;3.60;89.00;;;;;;4918149;29;20056;-88
2020/12/20 07:19:25;;;;;;;9.30;4.00;;;3.60;88.70;;;;;;4900975;29;20052;-89
2020/12/20 07:22:03;;;;;;;10.68;4.65;;;3.70;88.60;;;;;;4901511;29;20045;-87
2020/12/20 07:24:38;;;;;;;8.40;4.10;;;3.60;88.50;;;;;;4890964;29;20060;-87
2020/12/20 07:27:09;;;;;;;9.35;3.80;;;3.60;88.90;;;;;;4918581;29;20048;-88
2020/12/20 07:29:41;;;;;;;8.65;4.35;;;3.60;89.00;;;;;;4916328;29;20068;-87
2020/12/20 07:32:12;;;;;;;8.82;3.67;;;3.50;88.90;;;;;;4917290;29;20120;-88
2020/12/20 07:34:46;;;;;;;9.68;4.05;;;3.50;89.30;;;;;;4901866;29;20081;-87
2020/12/20 07:37:18;;;;;;;8.43;3.30;;;3.50;89.70;;;;;;4917247;29;20117;-86
2020/12/20 07:40:02;;;;;;;7.80;3.95;;;3.60;89.10;;;;;;4912612;29;20048;-87
2020/12/20 07:42:30;;;;;;;11.05;4.35;;;3.60;89.40;;;;;;4917160;29;20083;-86
2020/12/20 07:45:09;;;;;;;9.02;4.13;;;3.60;89.50;;;;;;4900149;29;20120;-87
2020/12/20 07:47:37;;;;;;;9.18;3.80;;;3.60;89.50;;;;;;4913496;29;20060;-87
2020/12/20 07:50:04;;;;;;;8.63;3.90;;;3.60;89.40;;;;;;4916948;29;20140;-87
2020/12/20 07:52:42;;;;;;;7.22;3.42;;;3.60;89.80;;;;;;4918343;29;20092;-87
2020/12/20 07:55:17;;;;;;;8.63;4.15;;;3.70;90.90;;;;;;4913025;29;20045;-88
2020/12/20 07:57:49;;;;;;;10.05;4.68;;;3.70;91.30;;;;;;4917924;29;20123;-86
2020/12/20 08:00:17;;;;;;;8.13;3.60;;;3.80;90.70;;;;;;4919847;29;20132;-89
2020/12/20 08:02:47;;;;;;;8.35;4.10;;;3.80;89.40;;;;;;4915397;29;20052;-89
2020/12/20 08:05:15;;;;;;;10.77;4.73;;;3.80;89.90;;;;;;4915638;29;20084;-87
2020/12/20 08:07:44;;;;;;;12.52;4.03;;;3.70;88.70;;;;;;4926750;29;20055;-90
2020/12/20 08:10:14;;;;;;;9.50;4.03;;;3.70;89.40;;;;;;4903773;29;20065;-89
2020/12/20 08:12:52;;;;;;;9.63;4.75;;;3.80;89.10;;;;;;4903375;29;20112;-88
2020/12/20 08:15:27;;;;;;;8.70;4.22;;;3.70;88.70;;;;;;4897862;29;20056;-89
2020/12/20 08:17:56;;;;;;;8.15;4.45;;;3.70;88.80;;;;;;4908365;29;20044;-87
2020/12/20 08:20:24;;;;;;;8.38;4.88;;;3.70;89.00;;;;;;4916195;29;20040;-88
2020/12/20 08:22:54;;;;;;;8.90;4.63;;;3.70;88.50;;;;;;4940012;29;20045;-87
2020/12/20 08:25:22;;;;;;;10.00;4.82;;;3.70;88.80;;;;;;4910987;29;20049;-88
2020/12/20 08:27:57;;;;;;;9.55;4.35;;;3.80;88.70;;;;;;4919752;29;20057;-88
2020/12/20 08:30:32;;;;;;;7.50;4.18;;;3.80;88.40;;;;;;4924734;29;20053;-89
2020/12/20 08:33:02;;;;;;;9.85;4.22;;;3.90;88.90;;;;;;4934256;29;20119;-87
2020/12/20 08:35:30;;;;;;;;;;;3.80;88.40;;;;;;4925953;29;20267;-88
2020/12/20 08:38:05;;;;;;;7.53;3.60;;;3.90;88.20;;;;;;4923263;29;19919;-87
2020/12/20 08:40:36;;;;;;;7.30;4.00;;;3.90;88.60;;;;;;4923235;29;20056;-88
2020/12/20 08:43:08;;;;;;;7.43;3.65;;;3.90;88.00;;;;;;4923705;29;20054;-87
2020/12/20 08:45:50;;;;;;;8.75;4.85;;;3.80;88.40;;;;;;4920811;29;20076;-87
2020/12/20 08:48:33;;;;;;;6.82;3.92;;;3.80;88.30;;;;;;4918093;29;20044;-89
2020/12/20 08:51:11;;;;;;;8.02;3.88;;;3.80;88.70;;;;;;4893027;29;20053;-89
2020/12/20 08:54:19;;;;;;;9.35;4.28;;;3.80;88.50;;;;;;4907448;29;20077;-90
2020/12/20 08:56:59;;;;;;;6.95;3.10;;;3.80;88.60;;;;;;4901517;29;20081;-88
2020/12/20 08:59:28;;;;;;;8.35;3.83;;;3.90;88.90;;;;;;4907737;29;20084;-87
2020/12/20 09:02:06;;;;;;;8.23;3.60;;;3.90;88.70;;;;;;4926322;29;20044;-87
2020/12/20 09:04:38;;;;;;;7.90;3.92;;;3.90;88.40;;;;;;4909506;29;20064;-87
2020/12/20 09:07:11;;;;;;;10.10;4.57;;;3.90;88.50;;;;;;4923986;29;20115;-86
2020/12/20 09:09:47;;;;;;;8.75;3.28;;;3.90;88.40;;;;;;4910236;29;20048;-87
2020/12/20 09:12:27;;;;;;;8.90;4.30;;;3.90;88.50;;;;;;4909272;29;20132;-86
2020/12/20 09:15:16;;;;;;;6.50;3.08;;;4.00;89.30;;;;;;4915794;29;20123;-88
2020/12/20 09:17:45;;;;;;;7.55;3.85;;;4.10;88.80;;;;;;4923309;29;20056;-87
2020/12/20 09:20:19;;;;;;;7.38;3.50;;;4.10;88.00;;;;;;4919727;29;20085;-87
2020/12/20 09:22:54;;;;;;;8.13;3.95;;;4.10;88.40;;;;;;4904292;29;20065;-87
2020/12/20 09:25:37;;;;;;;14.60;5.90;;;4.10;88.40;;;;;;4919664;29;20108;-88
2020/12/20 09:28:07;;;;;;;7.80;4.18;;;4.10;87.60;;;;;;4919671;29;20059;-87
2020/12/20 09:30:45;;;;;;;10.50;4.40;;;4.00;88.30;;;;;;4900422;29;20059;-87
2020/12/20 09:33:18;;;;;;;7.28;3.60;;;4.10;88.40;;;;;;4886042;29;20229;-88
2020/12/20 09:36:01;;;;;;;9.65;4.10;;;4.10;88.60;;;;;;4902181;29;20049;-87
2020/12/20 09:38:43;;;;;;;8.43;4.25;;;4.10;88.20;;;;;;4914696;29;20164;-86
2020/12/20 09:41:11;;;;;;;8.05;3.92;;;4.10;88.80;;;;;;4910838;29;20044;-88
2020/12/20 09:43:40;;;;;;;10.55;3.60;;;4.10;88.50;;;;;;4932247;29;20128;-88
2020/12/20 09:46:17;;;;;;;9.32;3.83;;;4.20;88.10;;;;;;4917819;29;20051;-87
2020/12/20 09:48:56;;;;;;;8.52;4.18;;;4.20;88.20;;;;;;4925368;29;20063;-86
2020/12/20 09:51:35;;;;;;;8.55;4.53;;;4.40;88.40;;;;;;4913171;29;20320;-86
2020/12/20 09:54:03;;;;;;;9.82;4.50;;;4.40;87.70;;;;;;4910970;29;20041;-87
2020/12/20 09:56:35;;;;;;;6.65;4.07;;;4.30;87.80;;;;;;4922698;29;20060;-87
2020/12/20 09:59:02;;;;;;;9.13;3.85;;;4.40;88.20;;;;;;4905969;29;20076;-87
2020/12/20 10:01:32;;;;;;;10.13;4.47;;;4.40;88.40;;;;;;4924790;29;20120;-89
2020/12/20 10:03:59;;;;;;;8.53;4.37;;;4.50;88.60;;;;;;4906720;29;20052;-89
2020/12/20 10:06:36;;;;;;;9.15;3.97;;;4.70;88.20;;;;;;4903970;29;20049;-88
2020/12/20 10:09:05;;;;;;;7.85;3.85;;;4.60;87.70;;;;;;4920155;29;20052;-88
2020/12/20 10:11:32;;;;;;;9.65;4.28;;;4.50;87.10;;;;;;4917292;29;20048;-86
2020/12/20 10:14:10;;;;;;;7.10;3.67;;;4.40;87.90;;;;;;4920721;29;20063;-87
2020/12/20 10:16:45;;;;;;;8.63;3.90;;;4.30;87.70;;;;;;4920383;29;20073;-87
2020/12/20 10:19:32;;;;;;;8.63;4.45;;;4.30;87.80;;;;;;4912297;29;20105;-91
2020/12/20 10:22:06;;;;;;;7.82;4.28;;;4.20;88.50;;;;;;4920755;29;20072;-88
2020/12/20 10:24:54;;;;;;;8.30;3.70;;;4.30;88.40;;;;;;4921264;29;20048;-88
2020/12/20 10:27:48;;;;;;;7.53;3.47;;;4.20;87.90;;;;;;4986198;23;20084;-88
2020/12/20 10:30:25;;;;;;;7.30;3.33;;;4.30;88.10;;;;;;4864401;29;20057;-89
2020/12/20 10:32:55;;;;;;;8.25;4.00;;;4.30;88.50;;;;;;4851701;29;20057;-90
2020/12/20 10:35:27;;;;;;;10.13;4.75;;;4.30;88.10;;;;;;4875609;29;20049;-89
2020/12/20 10:38:00;;;;;;;8.43;4.20;;;4.30;88.70;;;;;;4877817;29;20110;-87
2020/12/20 10:40:32;;;;;;;7.53;3.25;;;4.40;88.20;;;;;;4881309;29;20076;-88
2020/12/20 10:43:14;;;;;;;10.45;4.72;;;4.30;88.20;;;;;;4850062;29;20070;-89
2020/12/20 10:45:53;;;;;;;13.10;4.82;;;4.50;88.10;;;;;;4889886;29;20072;-91
2020/12/20 10:48:22;;;;;;;8.90;4.35;;;4.50;87.50;;;;;;4862007;29;20053;-88
2020/12/20 10:50:50;;;;;;;12.45;4.82;;;4.50;88.40;;;;;;4872700;29;20049;-89
2020/12/20 10:53:25;;;;;;;9.10;5.00;;;4.50;87.80;;;;;;4879635;29;20057;-90
2020/12/20 10:55:54;;;;;;;;;;;4.60;88.40;;;;;;4881538;29;20057;-91
2020/12/20 10:58:33;;;;;;;9.95;5.10;;;4.70;87.50;;;;;;4880869;29;19947;-88
2020/12/20 11:01:29;;;;;;;10.15;4.47;;;4.60;87.40;;;;;;4876415;29;20108;-88
2020/12/20 11:04:10;;;;;;;9.60;4.72;;;4.60;88.00;;;;;;4871829;29;20046;-90
2020/12/20 11:06:37;;;;;;;8.07;4.95;;;4.60;87.80;;;;;;4843020;29;20050;-88
2020/12/20 11:09:06;;;;;;;11.40;5.15;;;4.70;87.60;;;;;;4845965;29;20042;-88
2020/12/20 11:11:33;;;;;;;7.75;3.92;;;4.70;87.20;;;;;;4860075;29;20050;-88
2020/12/20 11:14:04;;;;;;;8.65;4.50;;;4.70;87.10;;;;;;4861045;29;20113;-88
2020/12/20 11:16:31;;;;;;;11.25;4.40;;;4.80;87.60;;;;;;4863401;29;20057;-88
2020/12/20 11:19:01;;;;;;;9.95;5.57;;;4.70;86.90;;;;;;4847714;29;20045;-88
2020/12/20 11:21:29;;;;;;;10.68;4.60;;;4.60;87.60;;;;;;4863889;29;20057;-88
2020/12/20 11:24:03;;;;;;;13.02;5.60;;;4.60;87.70;;;;;;4864392;29;20060;-89
2020/12/20 11:26:36;;;;;;;8.65;4.07;;;4.60;87.80;;;;;;4870436;29;20077;-88
2020/12/20 11:29:10;;;;;;;12.07;5.38;;;4.60;87.60;;;;;;4857816;29;20073;-88
2020/12/20 11:31:39;;;;;;;9.00;4.53;;;4.70;87.80;;;;;;4863528;29;20078;-87
2020/12/20 11:34:09;;;;;;;11.55;4.85;;;4.80;86.90;;;;;;4865422;29;20077;-89
2020/12/20 11:36:36;;;;;;;15.73;6.03;;;4.90;87.20;;;;;;4831419;29;20117;-89
2020/12/20 11:39:10;;;;;;;13.82;5.80;;;4.80;86.70;;;;;;4865511;29;20296;-88
2020/12/20 11:41:41;;;;;;;9.57;4.88;;;4.90;87.50;;;;;;4861648;29;20078;-88
2020/12/20 11:44:19;;;;;;;8.05;4.03;;;4.90;86.90;;;;;;4863012;29;20102;-88
2020/12/20 11:46:48;;;;;;;8.88;4.18;;;5.00;86.60;;;;;;4860637;29;20131;-88
2020/12/20 11:49:20;;;;;;;8.10;4.13;;;5.00;86.30;;;;;;4860456;29;20054;-88
2020/12/20 11:51:48;;;;;;;10.90;4.38;;;5.00;86.80;;;;;;4861547;29;20066;-88
2020/12/20 11:54:20;;;;;;;10.45;5.28;;;4.90;86.10;;;;;;4861089;29;20114;-87
2020/12/20 11:57:09;;;;;;;10.20;5.57;;;4.90;86.90;;;;;;4865074;29;20057;-88
2020/12/20 12:00:03;;;;;;;10.70;4.72;;;4.80;86.70;;;;;;4860615;29;20058;-87
2020/12/20 12:02:48;;;;;;;;;;;4.80;86.60;;;;;;4855548;29;20216;-89
2020/12/20 12:05:27;;;;;;;9.07;4.43;;;4.90;86.60;;;;;;4859666;29;19935;-91
2020/12/20 12:07:57;;;;;;;9.55;4.65;;;4.90;86.70;;;;;;4869307;29;20070;-90
2020/12/20 12:10:24;;;;;;;10.48;4.63;;;4.80;85.90;;;;;;4859957;29;20073;-89
2020/12/20 12:12:56;;;;;;;12.23;5.65;;;4.80;86.60;;;;;;4849346;29;20053;-89
2020/12/20 12:15:25;;;;;;;11.23;5.15;;;4.90;86.80;;;;;;4850433;29;20052;-88
2020/12/20 12:17:55;;;;;;;8.65;3.92;;;5.10;86.80;;;;;;4865415;29;20057;-89
2020/12/20 12:20:24;;;;;;;10.63;5.13;;;5.20;86.70;;;;;;4830608;29;20046;-90
2020/12/20 12:22:54;;;;;;;9.57;4.87;;;5.40;86.40;;;;;;4854642;29;20072;-90
2020/12/20 12:25:24;;;;;;;9.82;4.95;;;5.30;86.50;;;;;;4862977;29;20369;-88
2020/12/20 12:27:52;;;;;;;8.82;4.38;;;5.30;86.40;;;;;;4846917;29;20068;-89
2020/12/20 12:30:21;;;;;;;9.60;4.93;;;5.40;86.10;;;;;;4863501;29;20109;-90
2020/12/20 12:32:54;;;;;;;9.57;4.72;;;5.10;86.10;;;;;;4876628;29;20125;-90
2020/12/20 12:35:25;;;;;;;11.93;4.20;;;5.10;86.10;;;;;;4857462;29;20069;-89
2020/12/20 12:37:53;;;;;;;8.57;4.70;;;4.90;86.50;;;;;;4872465;29;20364;-90
2020/12/20 12:40:33;;;;;;;12.30;5.15;;;4.80;86.70;;;;;;4861602;29;20053;-88
2020/12/20 12:45:54;;;;;;;7.95;4.05;;;4.70;86.80;;;;;;4854298;29;19912;-89
2020/12/20 12:48:30;;;;;;;10.13;5.25;;;4.70;87.20;;;;;;4862066;29;20121;-90
2020/12/20 12:51:01;;;;;;;10.85;5.65;;;4.80;87.20;;;;;;4860365;29;20060;-88
2020/12/20 12:53:36;;;;;;;10.13;4.30;;;4.80;87.00;;;;;;4850689;29;20054;-89
2020/12/20 12:56:11;;;;;;;10.70;4.72;;;4.70;87.50;;;;;;4844599;29;20064;-87
2020/12/20 12:58:42;;;;;;;8.60;3.78;;;4.80;87.20;;;;;;4861367;29;20050;-89
2020/12/20 13:01:19;;;;;;;11.63;4.97;;;4.80;88.00;;;;;;4861419;29;20046;-88
2020/12/20 13:03:54;;;;;;;10.20;4.90;;;4.90;87.80;;;;;;4867592;29;20095;-89
2020/12/20 13:06:23;;;;;;;10.98;4.65;;;4.90;87.50;;;;;;4864700;29;20065;-91
2020/12/20 13:08:51;;;;;;;12.50;5.03;;;4.80;88.00;;;;;;4861889;29;20057;-88
2020/12/20 13:11:27;;;;;;;13.65;5.35;;;4.80;87.90;;;;;;4844839;29;20051;-90
2020/12/20 13:14:02;;;;;;;10.70;4.70;;;4.80;88.30;;;;;;4862244;29;20050;-90
2020/12/20 13:16:41;;;;;;;10.82;5.40;;;4.90;88.30;;;;;;4864917;29;20057;-88
2020/12/20 13:19:09;;;;;;;11.63;4.38;;;4.90;88.10;;;;;;4851381;29;20046;-86
2020/12/20 13:21:40;;;;;;;11.07;5.13;;;4.90;88.40;;;;;;4856243;29;20066;-89
2020/12/20 13:24:10;;;;;;;13.38;5.57;;;4.90;88.80;;;;;;4864509;29;20070;-90
2020/12/20 13:27:08;;;;;;;12.00;5.00;;;4.80;88.40;;;;;;4865000;29;20069;-89
2020/12/20 13:29:42;;;;;;;12.82;5.13;;;4.90;89.00;;;;;;4864431;29;20062;-90
2020/12/20 13:32:17;;;;;;;12.98;6.75;;;5.00;88.90;;;;;;4867316;29;20050;-89
2020/12/20 13:34:46;;;;;;;11.40;5.07;;;5.10;88.50;;;;;;4848681;29;20120;-87
2020/12/20 13:37:16;;;;;;;12.77;5.97;;;5.20;88.20;;;;;;4864811;29;20058;-87
2020/12/20 13:39:46;;;;;;;17.55;8.27;;;5.10;88.20;;;;;;4862935;29;20065;-90
2020/12/20 13:42:39;;;;;;;12.23;5.68;;;5.00;88.70;;;;;;4847042;29;20066;-89
2020/12/20 13:45:27;;;;;;;9.90;4.97;;;5.10;88.50;;;;;;4854363;29;20057;-89
2020/12/20 13:47:57;;;;;;;12.52;5.65;;;5.20;88.20;;;;;;4863899;29;20054;-91
2020/12/20 13:50:27;;;;;;;11.40;6.03;;;5.20;88.20;;;;;;4842343;29;20281;-89
2020/12/20 13:52:58;;;;;;;11.70;4.82;;;5.20;88.70;;;;;;4864269;29;20056;-90
2020/12/20 13:55:30;;;;;;;9.98;4.35;;;5.20;89.00;;;;;;4863985;29;20056;-89
2020/12/20 13:59:40;;;;;;;13.13;6.15;;;5.20;88.80;;;;;;4868981;29;20056;-87
2020/12/20 14:02:39;;;;;;;9.55;4.97;;;5.20;89.00;;;;;;4849131;29;20128;-88
2020/12/20 14:08:58;;;;;;;13.35;5.47;;;5.10;88.30;;;;;;4849698;29;20061;-88
2020/12/20 14:11:57;;;;;;;10.73;5.07;;;5.10;88.60;;;;;;4865871;29;20078;-90
2020/12/20 14:18:12;;;;;;;10.40;4.07;;;5.00;88.70;;;;;;4882562;29;19943;-89
2020/12/20 14:21:21;;;;;;;8.02;4.45;;;5.00;88.70;;;;;;4891296;29;20053;-87
2020/12/20 14:24:01;;;;;;;9.20;4.38;;;5.00;89.40;;;;;;4866228;29;20053;-89
2020/12/20 14:26:38;;;;;;;11.98;5.00;;;5.00;89.20;;;;;;4866289;29;20066;-88
2020/12/20 14:29:24;;;;;;;9.77;4.13;;;4.90;88.80;;;;;;4850902;29;20058;-87
2020/12/20 14:32:11;;;;;;;10.65;5.07;;;4.90;88.60;;;;;;4874820;29;20062;-88